Flying Dolphin Xxix — SW9853 — position and weather

sailwx.info

Track history (hours):
 
Tides and Currents Weather Stations Pressure Air Temp Water Temp Dewpoint Dewpoint Depression Visibility Wind Speed Wind Dir Waves Ship Positions

Flying Dolphin Xxix

Last reported at 2017-Sep-21 14:23 UTC. Time now 2017-Sep-21 18:05 UTC.
Position N 37°57' E 023°38'.

Length 34 m.

Type: High speed craft. MMSI: 237024500.

Date/timePositionNaut miles runAvg speedWind from/ knotsBaromVisibWave heightAir tempDewpointWater temp
2017-Sep-21 14:23N 37°57' E 023°38'0 0.5
2017-Sep-21 14:00N 37°57' E 023°39'612.1
2017-Sep-21 13:31N 37°54' E 023°32'1020.5
2017-Sep-21 13:00N 37°45' E 023°26'1225.0
2017-Sep-21 12:31N 37°55' E 023°34'3 5.8
2017-Sep-21 12:00N 37°56' E 023°38'1530.5
2017-Sep-21 11:30N 37°45' E 023°25'4 7.5
2017-Sep-21 11:00N 37°43' E 023°21'510.7
2017-Sep-21 10:30N 37°47' E 023°25'1428.3
2017-Sep-21 10:01N 37°57' E 023°38'510.2
2017-Sep-21 09:31N 37°54' E 023°33'1121.2
2017-Sep-21 08:59N 37°45' E 023°26'1122.7
2017-Sep-21 08:30N 37°54' E 023°33'5 9.8
2017-Sep-21 08:01N 37°56' E 023°38'1529.1
2017-Sep-21 07:31N 37°46' E 023°25'5 9.2
2017-Sep-21 07:00N 37°43' E 023°21'4 7.2
2017-Sep-21 06:30N 37°45' E 023°25'1530.2
2017-Sep-21 06:01N 37°56' E 023°37'2 0.1
2017-Sep-20 19:24N 37°57' E 023°39'513.6
2017-Sep-20 19:01N 37°52' E 023°36'1121.3
2017-Sep-20 18:31N 37°42' E 023°32'1224.1
2017-Sep-20 18:00N 37°30' E 023°27'814.5
2017-Sep-20 17:29N 37°23' E 023°29'5 2.1
2017-Sep-20 15:09N 37°23' E 023°23'510.6
2017-Sep-20 14:43N 37°21' E 023°28'1618.8
2017-Sep-20 13:52N 37°37' E 023°25'1029.3
2017-Sep-20 13:31N 37°48' E 023°28'1224.6
2017-Sep-20 13:00N 37°57' E 023°39'1 2.4
2017-Sep-20 12:31N 37°56' E 023°37'3 0.1
2017-Sep-19 11:16N 37°58' E 023°34'313.5
2017-Sep-19 11:00N 37°56' E 023°38'1 1.1
2017-Sep-19 10:30N 37°57' E 023°39'1120.1
2017-Sep-19 09:58N 37°46' E 023°35'1733.0
2017-Sep-19 09:28N 37°31' E 023°25'512.0
2017-Sep-19 09:01N 37°28' E 023°31'714.3
2017-Sep-19 08:30N 37°21' E 023°28'5 3.8
2017-Sep-19 07:07N 37°19' E 023°22'431.8
2017-Sep-19 07:00N 37°21' E 023°26'815.5
2017-Sep-19 06:28N 37°28' E 023°31'613.9
2017-Sep-19 06:00N 37°34' E 023°26'1632.3
2017-Sep-19 05:30N 37°48' E 023°35'917.9
2017-Sep-19 05:01N 37°57' E 023°39'0 0.0
2017-Sep-19 04:31N 37°57' E 023°39'0 0.0
2017-Sep-18 13:50N 37°57' E 023°39'514.4
2017-Sep-18 13:31N 37°54' E 023°34'1122.2
2017-Sep-18 13:00N 37°45' E 023°26'1223.2
2017-Sep-18 12:31N 37°54' E 023°34'4 7.4
2017-Sep-18 12:01N 37°56' E 023°38'1529.6
2017-Sep-18 11:31N 37°46' E 023°25'4 8.7
2017-Sep-18 11:00N 37°43' E 023°21'5 9.2
2017-Sep-18 10:30N 37°46' E 023°25'1529.1
2017-Sep-18 10:00N 37°56' E 023°38'2 4.5
2017-Sep-18 09:30N 37°55' E 023°36'1326.0
2017-Sep-18 09:00N 37°45' E 023°26'816.3
2017-Sep-18 08:31N 37°51' E 023°32'815.2
2017-Sep-18 08:00N 37°57' E 023°39'1122.2
2017-Sep-18 07:30N 37°49' E 023°29'916.7
2017-Sep-18 07:00N 37°43' E 023°21'4 7.4
2017-Sep-18 06:29N 37°45' E 023°24'1531.1
2017-Sep-18 06:01N 37°56' E 023°37'1 2.2
2017-Sep-18 05:30N 37°57' E 023°39'0 0.0
2017-Sep-17 15:25N 37°57' E 023°39'718.0
2017-Sep-17 15:01N 37°50' E 023°35'1632.7
2017-Sep-17 14:30N 37°33' E 023°33'1410.2
2017-Sep-17 13:08N 37°23' E 023°22'531.9
2017-Sep-17 12:59N 37°21' E 023°27'813.9
2017-Sep-17 12:25N 37°29' E 023°30'410.3
2017-Sep-17 12:00N 37°32' E 023°26'1632.4
2017-Sep-17 11:31N 37°46' E 023°35'1121.4
2017-Sep-17 11:00N 37°57' E 023°39'0 0.0
2017-Sep-17 10:30N 37°57' E 023°39'0 0.0
2017-Sep-16 17:46N 37°57' E 023°39'0 0.1
2017-Sep-16 17:31N 37°57' E 023°39'0 0.1
2017-Sep-16 17:01N 37°57' E 023°39'0 0.0
2017-Sep-16 16:30N 37°57' E 023°39'0 0.0
2017-Sep-16 16:01N 37°57' E 023°39'0 0.0
2017-Sep-16 15:31N 37°57' E 023°39'0 0.0
2017-Sep-16 15:00N 37°57' E 023°39'0 0.0
2017-Sep-16 14:30N 37°57' E 023°39'0 0.0
2017-Sep-16 14:00N 37°57' E 023°39'0 0.0
2017-Sep-16 13:30N 37°57' E 023°39'0 0.0
2017-Sep-16 13:00N 37°57' E 023°39'0 0.0
2017-Sep-16 12:30N 37°57' E 023°39'0 0.0
2017-Sep-16 12:01N 37°57' E 023°39'0 0.0
2017-Sep-16 11:31N 37°57' E 023°39'0 0.0
2017-Sep-16 11:01N 37°57' E 023°39'0 0.0
2017-Sep-16 10:31N 37°57' E 023°39'0 0.0
2017-Sep-16 10:01N 37°57' E 023°39'1121.6
2017-Sep-16 09:31N 37°49' E 023°29'510.2
2017-Sep-16 09:01N 37°45' E 023°26'1326.8
2017-Sep-16 08:31N 37°55' E 023°36'2 4.9
2017-Sep-16 08:00N 37°57' E 023°39'1427.4
2017-Sep-16 07:31N 37°47' E 023°26'611.7
2017-Sep-16 07:00N 37°43' E 023°21'4 8.5
2017-Sep-16 06:29N 37°46' E 023°25'1429.7
2017-Sep-16 06:00N 37°56' E 023°37'1 0.1
2017-Sep-15 11:51N 37°57' E 023°39'410.8
2017-Sep-15 11:31N 37°54' E 023°36'1326.1
2017-Sep-15 11:00N 37°41' E 023°31'612.1
2017-Sep-15 10:30N 37°37' E 023°25'4 7.4
2017-Sep-15 09:57N 37°33' E 023°23'5 7.9
2017-Sep-15 09:17N 37°30' E 023°28'620.0
2017-Sep-15 08:59N 37°24' E 023°28'6 3.0
2017-Sep-15 07:11N 37°23' E 023°21'613.5
2017-Sep-15 06:44N 37°22' E 023°28'724.8
2017-Sep-15 06:26N 37°29' E 023°30'510.9
2017-Sep-15 06:00N 37°32' E 023°25'1632.6
2017-Sep-15 05:30N 37°47' E 023°34'1020.5
2017-Sep-15 05:00N 37°57' E 023°39'0 0.0
2017-Sep-15 04:30N 37°57' E 023°39'0 0.0
2017-Sep-14 19:10N 37°57' E 023°39'1 6.4
2017-Sep-14 19:01N 37°56' E 023°37'1632.0
2017-Sep-14 18:31N 37°41' E 023°32'1221.9
2017-Sep-14 17:59N 37°30' E 023°27'914.3
2017-Sep-14 17:22N 37°21' E 023°28'6 2.9
2017-Sep-14 15:23N 37°23' E 023°21'612.7
2017-Sep-14 14:54N 37°22' E 023°28'820.5
2017-Sep-14 14:30N 37°30' E 023°27'1019.2
2017-Sep-14 14:00N 37°39' E 023°30'1327.1
2017-Sep-14 13:31N 37°53' E 023°29'612.1
2017-Sep-14 13:00N 37°56' E 023°36'2 4.4
2017-Sep-14 12:30N 37°57' E 023°39'4 7.7
2017-Sep-14 12:00N 37°58' E 023°34'0 0.0
2017-Sep-14 05:12N 37°58' E 023°34'0 2.4
2017-Sep-14 05:01N 37°57' E 023°34'3 0.3
2017-Sep-13 16:05N 37°57' E 023°38'110.2
2017-Sep-13 16:01N 37°56' E 023°37'1529.3
2017-Sep-13 15:30N 37°45' E 023°25'4 8.2
2017-Sep-13 15:00N 37°43' E 023°21'612.8
2017-Sep-13 14:31N 37°47' E 023°27'1317.2
2017-Sep-13 13:45N 37°57' E 023°38'521.5
2017-Sep-13 13:31N 37°52' E 023°35'1117.7
2017-Sep-13 12:55N 37°45' E 023°24'1332.0
2017-Sep-13 12:31N 37°55' E 023°35'1 2.3
2017-Sep-13 12:01N 37°56' E 023°36'1521.1
2017-Sep-13 11:18N 37°44' E 023°24'2 7.5
2017-Sep-13 11:00N 37°43' E 023°21'611.7
2017-Sep-13 10:31N 37°48' E 023°26'1317.9
2017-Sep-13 09:46N 37°57' E 023°39'521.2
2017-Sep-13 09:31N 37°54' E 023°32'1115.1
2017-Sep-13 08:47N 37°45' E 023°24'931.5
2017-Sep-13 08:30N 37°53' E 023°30'713.1
2017-Sep-13 07:57N 37°57' E 023°38'1329.3
2017-Sep-13 07:30N 37°47' E 023°27'4 5.6
2017-Sep-13 06:47N 37°44' E 023°23'2 7.2
2017-Sep-13 06:30N 37°46' E 023°25'1529.4
2017-Sep-13 06:00N 37°56' E 023°38'3 5.8
2017-Sep-13 05:31N 37°55' E 023°35'1214.0
2017-Sep-13 04:40N 37°46' E 023°25'532.3
2017-Sep-13 04:30N 37°49' E 023°30'10 0.8
2017-Sep-12 16:01N 37°57' E 023°39'0 0.0
2017-Sep-12 16:01N 37°57' E 023°39'1224.0
2017-Sep-12 15:31N 37°48' E 023°28'815.0
2017-Sep-12 15:00N 37°43' E 023°21'4 8.9
2017-Sep-12 14:31N 37°46' E 023°25'1529.4
2017-Sep-12 14:00N 37°57' E 023°38'713.3
2017-Sep-12 13:31N 37°51' E 023°33'917.3
2017-Sep-12 13:00N 37°45' E 023°26'1224.6
2017-Sep-12 12:31N 37°54' E 023°35'4 7.7
2017-Sep-12 12:01N 37°57' E 023°38'1427.3
2017-Sep-12 11:31N 37°47' E 023°26'611.8
2017-Sep-12 11:00N 37°43' E 023°21'4 7.5
2017-Sep-12 10:30N 37°44' E 023°25'1530.1
2017-Sep-12 10:01N 37°56' E 023°37'2 4.7
2017-Sep-12 09:31N 37°55' E 023°35'1224.4
2017-Sep-12 09:00N 37°45' E 023°26'1019.4
2017-Sep-12 08:30N 37°53' E 023°31'713.4
2017-Sep-12 08:00N 37°57' E 023°38'1427.5
2017-Sep-12 07:31N 37°47' E 023°26'611.8
2017-Sep-12 07:01N 37°43' E 023°21'611.3
2017-Sep-12 06:30N 37°47' E 023°25'1427.1
2017-Sep-12 06:00N 37°57' E 023°38'3 6.5
2017-Sep-12 05:31N 37°55' E 023°34'1325.1
2017-Sep-12 05:00N 37°45' E 023°26'510.2
2017-Sep-12 04:31N 37°49' E 023°29'1121.4
2017-Sep-12 04:01N 37°57' E 023°39'0 0.0
2017-Sep-11 18:20N 37°57' E 023°39'515.6
2017-Sep-11 18:01N 37°53' E 023°34'1120.6
2017-Sep-11 17:29N 37°45' E 023°26'0 0.2
2017-Sep-11 16:59N 37°45' E 023°26'1224.0
2017-Sep-11 16:31N 37°55' E 023°33'3 6.3
2017-Sep-11 16:01N 37°56' E 023°36'1428.6
2017-Sep-11 15:31N 37°45' E 023°25'4 7.9
2017-Sep-11 15:01N 37°43' E 023°21'5 9.2
2017-Sep-11 14:30N 37°46' E 023°25'  
Track history (hours):
 
Tides and Currents Weather Stations Pressure Air Temp Water Temp Dewpoint Dewpoint Depression Visibility Wind Speed Wind Dir Waves Ship Positions

Flying Dolphin Xxix

Last reported at 2017-Sep-21 14:23 UTC. Time now 2017-Sep-21 18:05 UTC.
Position N 37°57' E 023°38'.

Length 34 m.

Type: High speed craft. MMSI: 237024500.

Date/timePositionNaut miles runAvg speedWind from/ knotsBaromVisibWave heightAir tempDewpointWater temp
2017-Sep-21 14:23N 37°57' E 023°38'0 0.5
2017-Sep-21 14:00N 37°57' E 023°39'612.1
2017-Sep-21 13:31N 37°54' E 023°32'1020.5
2017-Sep-21 13:00N 37°45' E 023°26'1225.0
2017-Sep-21 12:31N 37°55' E 023°34'3 5.8
2017-Sep-21 12:00N 37°56' E 023°38'1530.5
2017-Sep-21 11:30N 37°45' E 023°25'4 7.5
2017-Sep-21 11:00N 37°43' E 023°21'510.7
2017-Sep-21 10:30N 37°47' E 023°25'1428.3
2017-Sep-21 10:01N 37°57' E 023°38'510.2
2017-Sep-21 09:31N 37°54' E 023°33'1121.2
2017-Sep-21 08:59N 37°45' E 023°26'1122.7
2017-Sep-21 08:30N 37°54' E 023°33'5 9.8
2017-Sep-21 08:01N 37°56' E 023°38'1529.1
2017-Sep-21 07:31N 37°46' E 023°25'5 9.2
2017-Sep-21 07:00N 37°43' E 023°21'4 7.2
2017-Sep-21 06:30N 37°45' E 023°25'1530.2
2017-Sep-21 06:01N 37°56' E 023°37'2 0.1
2017-Sep-20 19:24N 37°57' E 023°39'513.6
2017-Sep-20 19:01N 37°52' E 023°36'1121.3
2017-Sep-20 18:31N 37°42' E 023°32'1224.1
2017-Sep-20 18:00N 37°30' E 023°27'814.5
2017-Sep-20 17:29N 37°23' E 023°29'5 2.1
2017-Sep-20 15:09N 37°23' E 023°23'510.6
2017-Sep-20 14:43N 37°21' E 023°28'1618.8
2017-Sep-20 13:52N 37°37' E 023°25'1029.3
2017-Sep-20 13:31N 37°48' E 023°28'1224.6
2017-Sep-20 13:00N 37°57' E 023°39'1 2.4
2017-Sep-20 12:31N 37°56' E 023°37'3 0.1
2017-Sep-19 11:16N 37°58' E 023°34'313.5
2017-Sep-19 11:00N 37°56' E 023°38'1 1.1
2017-Sep-19 10:30N 37°57' E 023°39'1120.1
2017-Sep-19 09:58N 37°46' E 023°35'1733.0
2017-Sep-19 09:28N 37°31' E 023°25'512.0
2017-Sep-19 09:01N 37°28' E 023°31'714.3
2017-Sep-19 08:30N 37°21' E 023°28'5 3.8
2017-Sep-19 07:07N 37°19' E 023°22'431.8
2017-Sep-19 07:00N 37°21' E 023°26'815.5
2017-Sep-19 06:28N 37°28' E 023°31'613.9
2017-Sep-19 06:00N 37°34' E 023°26'1632.3
2017-Sep-19 05:30N 37°48' E 023°35'917.9
2017-Sep-19 05:01N 37°57' E 023°39'0 0.0
2017-Sep-19 04:31N 37°57' E 023°39'0 0.0
2017-Sep-18 13:50N 37°57' E 023°39'514.4
2017-Sep-18 13:31N 37°54' E 023°34'1122.2
2017-Sep-18 13:00N 37°45' E 023°26'1223.2
2017-Sep-18 12:31N 37°54' E 023°34'4 7.4
2017-Sep-18 12:01N 37°56' E 023°38'1529.6
2017-Sep-18 11:31N 37°46' E 023°25'4 8.7
2017-Sep-18 11:00N 37°43' E 023°21'5 9.2
2017-Sep-18 10:30N 37°46' E 023°25'1529.1
2017-Sep-18 10:00N 37°56' E 023°38'2 4.5
2017-Sep-18 09:30N 37°55' E 023°36'1326.0
2017-Sep-18 09:00N 37°45' E 023°26'816.3
2017-Sep-18 08:31N 37°51' E 023°32'815.2
2017-Sep-18 08:00N 37°57' E 023°39'1122.2
2017-Sep-18 07:30N 37°49' E 023°29'916.7
2017-Sep-18 07:00N 37°43' E 023°21'4 7.4
2017-Sep-18 06:29N 37°45' E 023°24'1531.1
2017-Sep-18 06:01N 37°56' E 023°37'1 2.2
2017-Sep-18 05:30N 37°57' E 023°39'0 0.0
2017-Sep-17 15:25N 37°57' E 023°39'718.0
2017-Sep-17 15:01N 37°50' E 023°35'1632.7
2017-Sep-17 14:30N 37°33' E 023°33'1410.2
2017-Sep-17 13:08N 37°23' E 023°22'531.9
2017-Sep-17 12:59N 37°21' E 023°27'813.9
2017-Sep-17 12:25N 37°29' E 023°30'410.3
2017-Sep-17 12:00N 37°32' E 023°26'1632.4
2017-Sep-17 11:31N 37°46' E 023°35'1121.4
2017-Sep-17 11:00N 37°57' E 023°39'0 0.0
2017-Sep-17 10:30N 37°57' E 023°39'0 0.0
2017-Sep-16 17:46N 37°57' E 023°39'0 0.1
2017-Sep-16 17:31N 37°57' E 023°39'0 0.1
2017-Sep-16 17:01N 37°57' E 023°39'0 0.0
2017-Sep-16 16:30N 37°57' E 023°39'0 0.0
2017-Sep-16 16:01N 37°57' E 023°39'0 0.0
2017-Sep-16 15:31N 37°57' E 023°39'0 0.0
2017-Sep-16 15:00N 37°57' E 023°39'0 0.0
2017-Sep-16 14:30N 37°57' E 023°39'0 0.0
2017-Sep-16 14:00N 37°57' E 023°39'0 0.0
2017-Sep-16 13:30N 37°57' E 023°39'0 0.0
2017-Sep-16 13:00N 37°57' E 023°39'0 0.0
2017-Sep-16 12:30N 37°57' E 023°39'0 0.0
2017-Sep-16 12:01N 37°57' E 023°39'0 0.0
2017-Sep-16 11:31N 37°57' E 023°39'0 0.0
2017-Sep-16 11:01N 37°57' E 023°39'0 0.0
2017-Sep-16 10:31N 37°57' E 023°39'0 0.0
2017-Sep-16 10:01N 37°57' E 023°39'1121.6
2017-Sep-16 09:31N 37°49' E 023°29'510.2
2017-Sep-16 09:01N 37°45' E 023°26'1326.8
2017-Sep-16 08:31N 37°55' E 023°36'2 4.9
2017-Sep-16 08:00N 37°57' E 023°39'1427.4
2017-Sep-16 07:31N 37°47' E 023°26'611.7
2017-Sep-16 07:00N 37°43' E 023°21'4 8.5
2017-Sep-16 06:29N 37°46' E 023°25'1429.7
2017-Sep-16 06:00N 37°56' E 023°37'1 0.1
2017-Sep-15 11:51N 37°57' E 023°39'410.8
2017-Sep-15 11:31N 37°54' E 023°36'1326.1
2017-Sep-15 11:00N 37°41' E 023°31'612.1
2017-Sep-15 10:30N 37°37' E 023°25'4 7.4
2017-Sep-15 09:57N 37°33' E 023°23'5 7.9
2017-Sep-15 09:17N 37°30' E 023°28'620.0
2017-Sep-15 08:59N 37°24' E 023°28'6 3.0
2017-Sep-15 07:11N 37°23' E 023°21'613.5
2017-Sep-15 06:44N 37°22' E 023°28'724.8
2017-Sep-15 06:26N 37°29' E 023°30'510.9
2017-Sep-15 06:00N 37°32' E 023°25'1632.6
2017-Sep-15 05:30N 37°47' E 023°34'1020.5
2017-Sep-15 05:00N 37°57' E 023°39'0 0.0
2017-Sep-15 04:30N 37°57' E 023°39'0 0.0
2017-Sep-14 19:10N 37°57' E 023°39'1 6.4
2017-Sep-14 19:01N 37°56' E 023°37'1632.0
2017-Sep-14 18:31N 37°41' E 023°32'1221.9
2017-Sep-14 17:59N 37°30' E 023°27'914.3
2017-Sep-14 17:22N 37°21' E 023°28'6 2.9
2017-Sep-14 15:23N 37°23' E 023°21'612.7
2017-Sep-14 14:54N 37°22' E 023°28'820.5
2017-Sep-14 14:30N 37°30' E 023°27'1019.2
2017-Sep-14 14:00N 37°39' E 023°30'1327.1
2017-Sep-14 13:31N 37°53' E 023°29'612.1
2017-Sep-14 13:00N 37°56' E 023°36'2 4.4
2017-Sep-14 12:30N 37°57' E 023°39'4 7.7
2017-Sep-14 12:00N 37°58' E 023°34'0 0.0
2017-Sep-14 05:12N 37°58' E 023°34'0 2.4
2017-Sep-14 05:01N 37°57' E 023°34'3 0.3
2017-Sep-13 16:05N 37°57' E 023°38'110.2
2017-Sep-13 16:01N 37°56' E 023°37'1529.3
2017-Sep-13 15:30N 37°45' E 023°25'4 8.2
2017-Sep-13 15:00N 37°43' E 023°21'612.8
2017-Sep-13 14:31N 37°47' E 023°27'1317.2
2017-Sep-13 13:45N 37°57' E 023°38'521.5
2017-Sep-13 13:31N 37°52' E 023°35'1117.7
2017-Sep-13 12:55N 37°45' E 023°24'1332.0
2017-Sep-13 12:31N 37°55' E 023°35'1 2.3
2017-Sep-13 12:01N 37°56' E 023°36'1521.1
2017-Sep-13 11:18N 37°44' E 023°24'2 7.5
2017-Sep-13 11:00N 37°43' E 023°21'611.7
2017-Sep-13 10:31N 37°48' E 023°26'1317.9
2017-Sep-13 09:46N 37°57' E 023°39'521.2
2017-Sep-13 09:31N 37°54' E 023°32'1115.1
2017-Sep-13 08:47N 37°45' E 023°24'931.5
2017-Sep-13 08:30N 37°53' E 023°30'713.1
2017-Sep-13 07:57N 37°57' E 023°38'1329.3
2017-Sep-13 07:30N 37°47' E 023°27'4 5.6
2017-Sep-13 06:47N 37°44' E 023°23'2 7.2
2017-Sep-13 06:30N 37°46' E 023°25'1529.4
2017-Sep-13 06:00N 37°56' E 023°38'3 5.8
2017-Sep-13 05:31N 37°55' E 023°35'1214.0
2017-Sep-13 04:40N 37°46' E 023°25'532.3
2017-Sep-13 04:30N 37°49' E 023°30'10 0.8
2017-Sep-12 16:01N 37°57' E 023°39'0 0.0
2017-Sep-12 16:01N 37°57' E 023°39'1224.0
2017-Sep-12 15:31N 37°48' E 023°28'815.0
2017-Sep-12 15:00N 37°43' E 023°21'4 8.9
2017-Sep-12 14:31N 37°46' E 023°25'1529.4
2017-Sep-12 14:00N 37°57' E 023°38'713.3
2017-Sep-12 13:31N 37°51' E 023°33'917.3
2017-Sep-12 13:00N 37°45' E 023°26'1224.6
2017-Sep-12 12:31N 37°54' E 023°35'4 7.7
2017-Sep-12 12:01N 37°57' E 023°38'1427.3
2017-Sep-12 11:31N 37°47' E 023°26'611.8
2017-Sep-12 11:00N 37°43' E 023°21'4 7.5
2017-Sep-12 10:30N 37°44' E 023°25'1530.1
2017-Sep-12 10:01N 37°56' E 023°37'2 4.7
2017-Sep-12 09:31N 37°55' E 023°35'1224.4
2017-Sep-12 09:00N 37°45' E 023°26'1019.4
2017-Sep-12 08:30N 37°53' E 023°31'713.4
2017-Sep-12 08:00N 37°57' E 023°38'1427.5
2017-Sep-12 07:31N 37°47' E 023°26'611.8
2017-Sep-12 07:01N 37°43' E 023°21'611.3
2017-Sep-12 06:30N 37°47' E 023°25'1427.1
2017-Sep-12 06:00N 37°57' E 023°38'3 6.5
2017-Sep-12 05:31N 37°55' E 023°34'1325.1
2017-Sep-12 05:00N 37°45' E 023°26'510.2
2017-Sep-12 04:31N 37°49' E 023°29'1121.4
2017-Sep-12 04:01N 37°57' E 023°39'0 0.0
2017-Sep-11 18:20N 37°57' E 023°39'515.6
2017-Sep-11 18:01N 37°53' E 023°34'1120.6
2017-Sep-11 17:29N 37°45' E 023°26'0 0.2
2017-Sep-11 16:59N 37°45' E 023°26'1224.0
2017-Sep-11 16:31N 37°55' E 023°33'3 6.3
2017-Sep-11 16:01N 37°56' E 023°36'1428.6
2017-Sep-11 15:31N 37°45' E 023°25'4 7.9
2017-Sep-11 15:01N 37°43' E 023°21'5 9.2
2017-Sep-11 14:30N 37°46' E 023°25'  

Dump ship's entire track history